sensor_id;sensor_type;location;lat;lon;timestamp;P1;durP1;ratioP1;P2;durP2;ratioP2
23068;SDS011;11702;50.856;4.348;2022-09-12T00:01:24;14.77;;;10.02;;
23068;SDS011;11702;50.856;4.348;2022-09-12T00:03:51;14.95;;;10.70;;
23068;SDS011;11702;50.856;4.348;2022-09-12T00:06:23;15.98;;;10.57;;
23068;SDS011;11702;50.856;4.348;2022-09-12T00:08:55;14.23;;;10.82;;
23068;SDS011;11702;50.856;4.348;2022-09-12T00:11:22;13.02;;;10.55;;
23068;SDS011;11702;50.856;4.348;2022-09-12T00:13:48;16.42;;;10.43;;
23068;SDS011;11702;50.856;4.348;2022-09-12T00:16:23;14.65;;;11.10;;
23068;SDS011;11702;50.856;4.348;2022-09-12T00:18:50;14.27;;;11.15;;
23068;SDS011;11702;50.856;4.348;2022-09-12T00:21:17;17.83;;;11.13;;
23068;SDS011;11702;50.856;4.348;2022-09-12T00:23:44;13.00;;;11.10;;
23068;SDS011;11702;50.856;4.348;2022-09-12T00:26:10;15.77;;;11.77;;
23068;SDS011;11702;50.856;4.348;2022-09-12T00:28:37;12.95;;;10.85;;
23068;SDS011;11702;50.856;4.348;2022-09-12T00:31:05;17.65;;;11.25;;
23068;SDS011;11702;50.856;4.348;2022-09-12T00:33:32;16.90;;;11.82;;
23068;SDS011;11702;50.856;4.348;2022-09-12T00:35:58;15.32;;;11.20;;
23068;SDS011;11702;50.856;4.348;2022-09-12T00:38:24;12.75;;;10.57;;
23068;SDS011;11702;50.856;4.348;2022-09-12T00:40:50;13.82;;;10.73;;
23068;SDS011;11702;50.856;4.348;2022-09-12T00:46:09;12.43;;;11.13;;
23068;SDS011;11702;50.856;4.348;2022-09-12T00:48:46;13.80;;;11.63;;
23068;SDS011;11702;50.856;4.348;2022-09-12T00:51:18;15.38;;;11.88;;
23068;SDS011;11702;50.856;4.348;2022-09-12T00:53:45;17.05;;;11.30;;
23068;SDS011;11702;50.856;4.348;2022-09-12T00:56:13;15.50;;;10.48;;
23068;SDS011;11702;50.856;4.348;2022-09-12T00:58:42;15.95;;;11.50;;
23068;SDS011;11702;50.856;4.348;2022-09-12T01:01:16;16.50;;;11.70;;
23068;SDS011;11702;50.856;4.348;2022-09-12T01:03:42;13.05;;;11.30;;
23068;SDS011;11702;50.856;4.348;2022-09-12T01:06:10;15.80;;;10.90;;
23068;SDS011;11702;50.856;4.348;2022-09-12T01:08:42;14.75;;;10.98;;
23068;SDS011;11702;50.856;4.348;2022-09-12T01:11:10;13.48;;;11.32;;
23068;SDS011;11702;50.856;4.348;2022-09-12T01:13:37;15.43;;;10.68;;
23068;SDS011;11702;50.856;4.348;2022-09-12T01:16:03;14.48;;;9.73;;
23068;SDS011;11702;50.856;4.348;2022-09-12T01:35:05;13.85;;;10.63;;
23068;SDS011;11702;50.856;4.348;2022-09-12T01:37:51;14.65;;;11.00;;
23068;SDS011;11702;50.856;4.348;2022-09-12T01:40:44;12.25;;;10.40;;
23068;SDS011;11702;50.856;4.348;2022-09-12T01:43:29;17.77;;;11.07;;
23068;SDS011;11702;50.856;4.348;2022-09-12T01:46:09;13.38;;;11.02;;
23068;SDS011;11702;50.856;4.348;2022-09-12T01:48:46;13.65;;;10.32;;
23068;SDS011;11702;50.856;4.348;2022-09-12T01:51:15;18.20;;;11.60;;
23068;SDS011;11702;50.856;4.348;2022-09-12T01:53:56;12.82;;;10.50;;
23068;SDS011;11702;50.856;4.348;2022-09-12T01:56:32;14.68;;;10.75;;
23068;SDS011;11702;50.856;4.348;2022-09-12T02:01:45;13.35;;;11.15;;
23068;SDS011;11702;50.856;4.348;2022-09-12T02:04:21;12.50;;;10.75;;
23068;SDS011;11702;50.856;4.348;2022-09-12T02:09:39;17.58;;;11.40;;
23068;SDS011;11702;50.856;4.348;2022-09-12T02:12:20;18.77;;;11.73;;
23068;SDS011;11702;50.856;4.348;2022-09-12T02:15:00;17.38;;;11.80;;
23068;SDS011;11702;50.856;4.348;2022-09-12T02:17:31;16.60;;;11.88;;
23068;SDS011;11702;50.856;4.348;2022-09-12T02:20:09;15.88;;;11.40;;
23068;SDS011;11702;50.856;4.348;2022-09-12T02:22:40;15.27;;;11.30;;
23068;SDS011;11702;50.856;4.348;2022-09-12T02:25:09;15.13;;;10.98;;
23068;SDS011;11702;50.856;4.348;2022-09-12T02:27:37;17.65;;;11.32;;
23068;SDS011;11702;50.856;4.348;2022-09-12T02:30:13;15.68;;;10.77;;
23068;SDS011;11702;50.856;4.348;2022-09-12T02:35:32;12.50;;;10.55;;
23068;SDS011;11702;50.856;4.348;2022-09-12T02:38:27;12.85;;;10.48;;
23068;SDS011;11702;50.856;4.348;2022-09-12T02:40:59;12.88;;;9.90;;
23068;SDS011;11702;50.856;4.348;2022-09-12T02:43:25;15.75;;;10.10;;
23068;SDS011;11702;50.856;4.348;2022-09-12T02:45:50;14.68;;;10.80;;
23068;SDS011;11702;50.856;4.348;2022-09-12T02:48:24;16.73;;;11.43;;
23068;SDS011;11702;50.856;4.348;2022-09-12T02:50:54;13.45;;;10.48;;
23068;SDS011;11702;50.856;4.348;2022-09-12T02:53:20;15.07;;;10.80;;
23068;SDS011;11702;50.856;4.348;2022-09-12T02:55:46;20.58;;;12.00;;
23068;SDS011;11702;50.856;4.348;2022-09-12T02:58:14;14.63;;;10.93;;
23068;SDS011;11702;50.856;4.348;2022-09-12T03:00:59;13.20;;;10.77;;
23068;SDS011;11702;50.856;4.348;2022-09-12T03:04:11;15.73;;;10.55;;
23068;SDS011;11702;50.856;4.348;2022-09-12T03:12:02;14.57;;;11.00;;
23068;SDS011;11702;50.856;4.348;2022-09-12T03:14:54;23.17;;;11.45;;
23068;SDS011;11702;50.856;4.348;2022-09-12T03:25:16;16.85;;;11.55;;
23068;SDS011;11702;50.856;4.348;2022-09-12T03:27:55;18.83;;;11.82;;
23068;SDS011;11702;50.856;4.348;2022-09-12T03:30:25;20.35;;;11.65;;
23068;SDS011;11702;50.856;4.348;2022-09-12T03:32:51;17.77;;;11.38;;
23068;SDS011;11702;50.856;4.348;2022-09-12T03:35:21;19.30;;;11.93;;
23068;SDS011;11702;50.856;4.348;2022-09-12T03:37:48;20.55;;;13.10;;
23068;SDS011;11702;50.856;4.348;2022-09-12T03:40:15;15.20;;;11.32;;
23068;SDS011;11702;50.856;4.348;2022-09-12T03:42:41;18.08;;;10.68;;
23068;SDS011;11702;50.856;4.348;2022-09-12T03:45:07;13.80;;;11.18;;
23068;SDS011;11702;50.856;4.348;2022-09-12T03:47:33;18.63;;;11.00;;
23068;SDS011;11702;50.856;4.348;2022-09-12T03:49:59;19.27;;;11.75;;
23068;SDS011;11702;50.856;4.348;2022-09-12T03:52:25;20.88;;;11.70;;
23068;SDS011;11702;50.856;4.348;2022-09-12T03:54:51;16.05;;;10.40;;
23068;SDS011;11702;50.856;4.348;2022-09-12T03:57:17;14.95;;;10.48;;
23068;SDS011;11702;50.856;4.348;2022-09-12T03:59:43;17.10;;;10.80;;
23068;SDS011;11702;50.856;4.348;2022-09-12T04:02:08;16.38;;;10.70;;
23068;SDS011;11702;50.856;4.348;2022-09-12T04:04:37;16.95;;;10.52;;
23068;SDS011;11702;50.856;4.348;2022-09-12T04:07:04;20.77;;;12.15;;
23068;SDS011;11702;50.856;4.348;2022-09-12T04:09:30;17.10;;;12.13;;
23068;SDS011;11702;50.856;4.348;2022-09-12T04:11:56;21.48;;;11.77;;
23068;SDS011;11702;50.856;4.348;2022-09-12T04:14:21;25.50;;;11.82;;
23068;SDS011;11702;50.856;4.348;2022-09-12T04:16:47;15.68;;;11.68;;
23068;SDS011;11702;50.856;4.348;2022-09-12T04:19:12;13.50;;;11.38;;
23068;SDS011;11702;50.856;4.348;2022-09-12T04:21:38;14.02;;;11.32;;
23068;SDS011;11702;50.856;4.348;2022-09-12T04:24:04;15.95;;;11.40;;
23068;SDS011;11702;50.856;4.348;2022-09-12T04:26:29;18.60;;;11.77;;
23068;SDS011;11702;50.856;4.348;2022-09-12T04:28:55;16.50;;;10.88;;
23068;SDS011;11702;50.856;4.348;2022-09-12T04:31:22;13.80;;;10.85;;
23068;SDS011;11702;50.856;4.348;2022-09-12T04:33:52;17.10;;;11.27;;
23068;SDS011;11702;50.856;4.348;2022-09-12T04:36:23;14.15;;;10.85;;
23068;SDS011;11702;50.856;4.348;2022-09-12T04:38:49;17.55;;;12.23;;
23068;SDS011;11702;50.856;4.348;2022-09-12T04:41:22;15.57;;;10.95;;
23068;SDS011;11702;50.856;4.348;2022-09-12T04:43:50;18.50;;;11.68;;
23068;SDS011;11702;50.856;4.348;2022-09-12T04:46:26;15.15;;;11.00;;
23068;SDS011;11702;50.856;4.348;2022-09-12T04:48:53;14.80;;;11.38;;
23068;SDS011;11702;50.856;4.348;2022-09-12T04:51:19;17.55;;;12.70;;
23068;SDS011;11702;50.856;4.348;2022-09-12T04:53:48;16.92;;;11.38;;
23068;SDS011;11702;50.856;4.348;2022-09-12T04:56:16;21.45;;;12.25;;
23068;SDS011;11702;50.856;4.348;2022-09-12T04:58:42;22.25;;;12.52;;
23068;SDS011;11702;50.856;4.348;2022-09-12T05:01:08;22.55;;;12.68;;
23068;SDS011;11702;50.856;4.348;2022-09-12T05:03:35;21.10;;;12.88;;
23068;SDS011;11702;50.856;4.348;2022-09-12T05:06:03;19.10;;;12.93;;
23068;SDS011;11702;50.856;4.348;2022-09-12T05:08:34;17.63;;;11.52;;
23068;SDS011;11702;50.856;4.348;2022-09-12T05:11:01;21.30;;;12.30;;
23068;SDS011;11702;50.856;4.348;2022-09-12T05:13:31;19.55;;;13.05;;
23068;SDS011;11702;50.856;4.348;2022-09-12T05:15:58;18.45;;;12.75;;
23068;SDS011;11702;50.856;4.348;2022-09-12T05:18:24;21.35;;;13.07;;
23068;SDS011;11702;50.856;4.348;2022-09-12T05:20:51;23.58;;;13.23;;
23068;SDS011;11702;50.856;4.348;2022-09-12T05:23:17;20.83;;;12.68;;
23068;SDS011;11702;50.856;4.348;2022-09-12T05:25:52;24.95;;;12.63;;
23068;SDS011;11702;50.856;4.348;2022-09-12T05:28:20;33.15;;;13.20;;
23068;SDS011;11702;50.856;4.348;2022-09-12T05:30:46;23.98;;;12.50;;
23068;SDS011;11702;50.856;4.348;2022-09-12T05:33:13;28.05;;;13.13;;
23068;SDS011;11702;50.856;4.348;2022-09-12T05:35:39;26.38;;;12.73;;
23068;SDS011;11702;50.856;4.348;2022-09-12T05:38:06;24.15;;;13.20;;
23068;SDS011;11702;50.856;4.348;2022-09-12T05:40:32;22.40;;;13.10;;
23068;SDS011;11702;50.856;4.348;2022-09-12T05:42:58;22.88;;;12.50;;
23068;SDS011;11702;50.856;4.348;2022-09-12T05:45:24;26.50;;;13.15;;
23068;SDS011;11702;50.856;4.348;2022-09-12T05:47:51;18.20;;;12.70;;
23068;SDS011;11702;50.856;4.348;2022-09-12T05:50:20;22.05;;;13.07;;
23068;SDS011;11702;50.856;4.348;2022-09-12T05:52:46;18.90;;;12.52;;
23068;SDS011;11702;50.856;4.348;2022-09-12T05:55:11;19.25;;;12.85;;
23068;SDS011;11702;50.856;4.348;2022-09-12T05:57:37;24.05;;;13.40;;
23068;SDS011;11702;50.856;4.348;2022-09-12T06:00:03;22.48;;;13.27;;
23068;SDS011;11702;50.856;4.348;2022-09-12T06:02:30;19.98;;;12.57;;
23068;SDS011;11702;50.856;4.348;2022-09-12T06:04:55;22.65;;;14.75;;
23068;SDS011;11702;50.856;4.348;2022-09-12T06:07:21;18.17;;;13.23;;
23068;SDS011;11702;50.856;4.348;2022-09-12T06:09:47;23.35;;;13.30;;
23068;SDS011;11702;50.856;4.348;2022-09-12T06:12:12;22.45;;;13.30;;
23068;SDS011;11702;50.856;4.348;2022-09-12T06:14:38;23.95;;;13.88;;
23068;SDS011;11702;50.856;4.348;2022-09-12T06:17:04;25.65;;;14.27;;
23068;SDS011;11702;50.856;4.348;2022-09-12T06:19:29;21.27;;;13.25;;
23068;SDS011;11702;50.856;4.348;2022-09-12T06:21:55;23.73;;;13.55;;
23068;SDS011;11702;50.856;4.348;2022-09-12T06:24:21;21.75;;;11.82;;
23068;SDS011;11702;50.856;4.348;2022-09-12T06:26:47;18.65;;;12.07;;
23068;SDS011;11702;50.856;4.348;2022-09-12T06:29:14;19.95;;;12.93;;
23068;SDS011;11702;50.856;4.348;2022-09-12T06:31:40;31.23;;;12.48;;
23068;SDS011;11702;50.856;4.348;2022-09-12T06:34:08;15.20;;;11.63;;
23068;SDS011;11702;50.856;4.348;2022-09-12T06:36:36;16.23;;;10.68;;
23068;SDS011;11702;50.856;4.348;2022-09-12T06:39:08;20.38;;;11.27;;
23068;SDS011;11702;50.856;4.348;2022-09-12T06:41:36;20.25;;;11.77;;
23068;SDS011;11702;50.856;4.348;2022-09-12T06:44:02;23.42;;;10.65;;
23068;SDS011;11702;50.856;4.348;2022-09-12T06:46:28;15.80;;;9.43;;
23068;SDS011;11702;50.856;4.348;2022-09-12T06:48:55;28.92;;;9.80;;
23068;SDS011;11702;50.856;4.348;2022-09-12T06:51:23;29.35;;;10.73;;
23068;SDS011;11702;50.856;4.348;2022-09-12T06:53:50;18.05;;;9.73;;
23068;SDS011;11702;50.856;4.348;2022-09-12T06:56:20;13.02;;;9.13;;
23068;SDS011;11702;50.856;4.348;2022-09-12T06:58:47;18.77;;;10.82;;
23068;SDS011;11702;50.856;4.348;2022-09-12T07:01:21;17.80;;;10.20;;
23068;SDS011;11702;50.856;4.348;2022-09-12T07:03:50;15.70;;;10.05;;
23068;SDS011;11702;50.856;4.348;2022-09-12T07:06:21;15.55;;;9.18;;
23068;SDS011;11702;50.856;4.348;2022-09-12T07:08:48;13.45;;;7.53;;
23068;SDS011;11702;50.856;4.348;2022-09-12T07:11:16;14.55;;;7.30;;
23068;SDS011;11702;50.856;4.348;2022-09-12T07:13:43;15.18;;;7.53;;
23068;SDS011;11702;50.856;4.348;2022-09-12T07:16:11;11.73;;;6.07;;
23068;SDS011;11702;50.856;4.348;2022-09-12T07:18:38;7.35;;;5.57;;
23068;SDS011;11702;50.856;4.348;2022-09-12T07:21:08;9.25;;;5.68;;
23068;SDS011;11702;50.856;4.348;2022-09-12T07:23:36;14.52;;;6.00;;
23068;SDS011;11702;50.856;4.348;2022-09-12T07:26:03;13.90;;;6.18;;
23068;SDS011;11702;50.856;4.348;2022-09-12T07:28:30;10.93;;;5.05;;
23068;SDS011;11702;50.856;4.348;2022-09-12T07:31:00;11.77;;;5.00;;
23068;SDS011;11702;50.856;4.348;2022-09-12T07:33:33;6.00;;;4.47;;
23068;SDS011;11702;50.856;4.348;2022-09-12T07:36:00;5.85;;;4.43;;
23068;SDS011;11702;50.856;4.348;2022-09-12T07:38:30;13.93;;;5.38;;
23068;SDS011;11702;50.856;4.348;2022-09-12T07:40:56;7.30;;;4.70;;
23068;SDS011;11702;50.856;4.348;2022-09-12T07:43:22;7.80;;;5.28;;
23068;SDS011;11702;50.856;4.348;2022-09-12T07:45:53;6.80;;;4.75;;
23068;SDS011;11702;50.856;4.348;2022-09-12T07:48:19;7.60;;;4.55;;
23068;SDS011;11702;50.856;4.348;2022-09-12T07:50:44;8.55;;;4.38;;
23068;SDS011;11702;50.856;4.348;2022-09-12T07:53:10;8.98;;;4.68;;
23068;SDS011;11702;50.856;4.348;2022-09-12T07:55:36;4.78;;;3.88;;
23068;SDS011;11702;50.856;4.348;2022-09-12T07:58:02;5.13;;;3.95;;
23068;SDS011;11702;50.856;4.348;2022-09-12T08:00:28;9.30;;;4.30;;
23068;SDS011;11702;50.856;4.348;2022-09-12T08:02:59;12.48;;;4.32;;
23068;SDS011;11702;50.856;4.348;2022-09-12T08:05:26;6.95;;;4.15;;
23068;SDS011;11702;50.856;4.348;2022-09-12T08:07:53;7.85;;;4.70;;
23068;SDS011;11702;50.856;4.348;2022-09-12T08:10:19;7.53;;;4.43;;
23068;SDS011;11702;50.856;4.348;2022-09-12T08:12:45;6.80;;;3.50;;
23068;SDS011;11702;50.856;4.348;2022-09-12T08:15:10;6.15;;;4.22;;
23068;SDS011;11702;50.856;4.348;2022-09-12T08:17:36;7.97;;;4.13;;
23068;SDS011;11702;50.856;4.348;2022-09-12T08:20:02;4.65;;;3.63;;
23068;SDS011;11702;50.856;4.348;2022-09-12T08:22:29;7.60;;;4.05;;
23068;SDS011;11702;50.856;4.348;2022-09-12T08:24:55;4.75;;;3.60;;
23068;SDS011;11702;50.856;4.348;2022-09-12T08:27:21;5.82;;;3.80;;
23068;SDS011;11702;50.856;4.348;2022-09-12T08:29:46;6.10;;;3.92;;
23068;SDS011;11702;50.856;4.348;2022-09-12T08:32:12;6.10;;;3.83;;
23068;SDS011;11702;50.856;4.348;2022-09-12T08:34:37;7.72;;;4.10;;
23068;SDS011;11702;50.856;4.348;2022-09-12T08:37:03;5.07;;;3.78;;
23068;SDS011;11702;50.856;4.348;2022-09-12T08:39:29;9.90;;;4.40;;
23068;SDS011;11702;50.856;4.348;2022-09-12T08:42:03;12.90;;;6.88;;
23068;SDS011;11702;50.856;4.348;2022-09-12T08:47:13;7.90;;;4.40;;
23068;SDS011;11702;50.856;4.348;2022-09-12T08:52:46;9.90;;;5.53;;
23068;SDS011;11702;50.856;4.348;2022-09-12T08:58:09;6.85;;;4.05;;
23068;SDS011;11702;50.856;4.348;2022-09-12T09:08:46;6.70;;;3.65;;
23068;SDS011;11702;50.856;4.348;2022-09-12T09:17:14;6.55;;;3.67;;
23068;SDS011;11702;50.856;4.348;2022-09-12T09:19:45;4.70;;;3.17;;
23068;SDS011;11702;50.856;4.348;2022-09-12T09:22:27;8.10;;;3.60;;
23068;SDS011;11702;50.856;4.348;2022-09-12T09:25:02;7.32;;;3.60;;
23068;SDS011;11702;50.856;4.348;2022-09-12T09:27:35;7.43;;;3.67;;
23068;SDS011;11702;50.856;4.348;2022-09-12T09:30:17;6.30;;;3.40;;
23068;SDS011;11702;50.856;4.348;2022-09-12T09:32:49;7.70;;;4.25;;
23068;SDS011;11702;50.856;4.348;2022-09-12T09:35:21;9.32;;;3.55;;
23068;SDS011;11702;50.856;4.348;2022-09-12T09:38:05;8.50;;;4.22;;
23068;SDS011;11702;50.856;4.348;2022-09-12T09:40:56;12.00;;;3.40;;
23068;SDS011;11702;50.856;4.348;2022-09-12T09:43:32;8.40;;;3.88;;
23068;SDS011;11702;50.856;4.348;2022-09-12T09:45:57;9.05;;;3.30;;
23068;SDS011;11702;50.856;4.348;2022-09-12T09:48:26;6.38;;;2.95;;
23068;SDS011;11702;50.856;4.348;2022-09-12T09:50:57;6.68;;;3.45;;
23068;SDS011;11702;50.856;4.348;2022-09-12T09:56:14;4.47;;;3.00;;
23068;SDS011;11702;50.856;4.348;2022-09-12T09:58:50;7.63;;;3.47;;
23068;SDS011;11702;50.856;4.348;2022-09-12T10:01:16;7.15;;;2.90;;
23068;SDS011;11702;50.856;4.348;2022-09-12T10:03:53;5.65;;;3.75;;
23068;SDS011;11702;50.856;4.348;2022-09-12T10:06:38;4.15;;;2.65;;
23068;SDS011;11702;50.856;4.348;2022-09-12T10:09:05;7.53;;;3.42;;
23068;SDS011;11702;50.856;4.348;2022-09-12T10:11:48;5.22;;;2.20;;
23068;SDS011;11702;50.856;4.348;2022-09-12T10:17:02;4.93;;;2.53;;
23068;SDS011;11702;50.856;4.348;2022-09-12T10:19:46;4.93;;;2.45;;
23068;SDS011;11702;50.856;4.348;2022-09-12T10:22:16;7.38;;;2.80;;
23068;SDS011;11702;50.856;4.348;2022-09-12T10:24:46;5.75;;;2.88;;
23068;SDS011;11702;50.856;4.348;2022-09-12T10:27:29;4.88;;;2.20;;
23068;SDS011;11702;50.856;4.348;2022-09-12T10:32:38;6.40;;;2.30;;
23068;SDS011;11702;50.856;4.348;2022-09-12T10:35:07;3.67;;;2.17;;
23068;SDS011;11702;50.856;4.348;2022-09-12T10:38:43;6.28;;;3.17;;
23068;SDS011;11702;50.856;4.348;2022-09-12T10:41:05;7.90;;;2.95;;
23068;SDS011;11702;50.856;4.348;2022-09-12T10:46:21;5.93;;;2.75;;
23068;SDS011;11702;50.856;4.348;2022-09-12T10:49:11;6.63;;;2.40;;
23068;SDS011;11702;50.856;4.348;2022-09-12T10:51:38;4.93;;;2.38;;
23068;SDS011;11702;50.856;4.348;2022-09-12T10:54:06;4.78;;;2.80;;
23068;SDS011;11702;50.856;4.348;2022-09-12T10:59:51;6.47;;;2.60;;
23068;SDS011;11702;50.856;4.348;2022-09-12T11:02:29;6.70;;;2.60;;
23068;SDS011;11702;50.856;4.348;2022-09-12T11:04:59;4.70;;;2.10;;
23068;SDS011;11702;50.856;4.348;2022-09-12T11:10:51;3.70;;;1.90;;
23068;SDS011;11702;50.856;4.348;2022-09-12T11:19:09;5.00;;;2.53;;
23068;SDS011;11702;50.856;4.348;2022-09-12T11:22:44;4.70;;;2.00;;
23068;SDS011;11702;50.856;4.348;2022-09-12T11:35:50;4.25;;;2.30;;
23068;SDS011;11702;50.856;4.348;2022-09-12T11:38:34;3.88;;;2.80;;
23068;SDS011;11702;50.856;4.348;2022-09-12T11:41:35;3.85;;;2.45;;
23068;SDS011;11702;50.856;4.348;2022-09-12T11:46:41;5.40;;;2.60;;
23068;SDS011;11702;50.856;4.348;2022-09-12T11:57:07;4.55;;;2.22;;
23068;SDS011;11702;50.856;4.348;2022-09-12T12:02:21;4.22;;;2.20;;
23068;SDS011;11702;50.856;4.348;2022-09-12T12:07:41;3.35;;;2.45;;
23068;SDS011;11702;50.856;4.348;2022-09-12T12:10:23;3.28;;;2.00;;
23068;SDS011;11702;50.856;4.348;2022-09-12T12:13:00;2.10;;;1.88;;
23068;SDS011;11702;50.856;4.348;2022-09-12T12:15:52;4.60;;;2.35;;
23068;SDS011;11702;50.856;4.348;2022-09-12T12:18:22;3.30;;;1.80;;
23068;SDS011;11702;50.856;4.348;2022-09-12T12:20:50;3.53;;;1.92;;
23068;SDS011;11702;50.856;4.348;2022-09-12T12:25:54;2.75;;;1.90;;
23068;SDS011;11702;50.856;4.348;2022-09-12T12:31:05;3.22;;;1.90;;
23068;SDS011;11702;50.856;4.348;2022-09-12T12:43:43;2.10;;;1.73;;
23068;SDS011;11702;50.856;4.348;2022-09-12T12:46:14;4.72;;;1.70;;
23068;SDS011;11702;50.856;4.348;2022-09-12T12:51:32;3.58;;;2.45;;
23068;SDS011;11702;50.856;4.348;2022-09-12T12:57:00;5.00;;;2.20;;
23068;SDS011;11702;50.856;4.348;2022-09-12T13:00:00;2.60;;;1.83;;
23068;SDS011;11702;50.856;4.348;2022-09-12T13:02:58;5.07;;;1.98;;
23068;SDS011;11702;50.856;4.348;2022-09-12T13:05:26;2.83;;;2.00;;
23068;SDS011;11702;50.856;4.348;2022-09-12T13:08:00;3.70;;;2.17;;
23068;SDS011;11702;50.856;4.348;2022-09-12T13:10:34;5.45;;;2.10;;
23068;SDS011;11702;50.856;4.348;2022-09-12T13:13:01;3.72;;;2.25;;
23068;SDS011;11702;50.856;4.348;2022-09-12T13:18:02;7.55;;;1.95;;
23068;SDS011;11702;50.856;4.348;2022-09-12T13:20:31;3.72;;;1.90;;
23068;SDS011;11702;50.856;4.348;2022-09-12T13:23:01;3.65;;;2.00;;
23068;SDS011;11702;50.856;4.348;2022-09-12T13:25:29;5.50;;;1.77;;
23068;SDS011;11702;50.856;4.348;2022-09-12T13:27:58;3.30;;;1.70;;
23068;SDS011;11702;50.856;4.348;2022-09-12T13:30:34;6.32;;;2.10;;
23068;SDS011;11702;50.856;4.348;2022-09-12T13:35:55;2.22;;;1.45;;
23068;SDS011;11702;50.856;4.348;2022-09-12T13:44:42;3.08;;;1.50;;
23068;SDS011;11702;50.856;4.348;2022-09-12T13:49:44;3.95;;;1.80;;
23068;SDS011;11702;50.856;4.348;2022-09-12T13:52:18;2.33;;;1.70;;
23068;SDS011;11702;50.856;4.348;2022-09-12T13:54:47;3.35;;;1.60;;
23068;SDS011;11702;50.856;4.348;2022-09-12T13:57:29;3.22;;;1.77;;
23068;SDS011;11702;50.856;4.348;2022-09-12T14:02:43;2.60;;;1.45;;
23068;SDS011;11702;50.856;4.348;2022-09-12T14:05:10;4.53;;;1.77;;
23068;SDS011;11702;50.856;4.348;2022-09-12T14:13:17;2.90;;;1.90;;
23068;SDS011;11702;50.856;4.348;2022-09-12T14:15:49;3.88;;;1.50;;
23068;SDS011;11702;50.856;4.348;2022-09-12T14:18:29;1.85;;;1.50;;
23068;SDS011;11702;50.856;4.348;2022-09-12T14:21:10;5.28;;;1.70;;
23068;SDS011;11702;50.856;4.348;2022-09-12T14:23:44;4.47;;;1.55;;
23068;SDS011;11702;50.856;4.348;2022-09-12T14:26:12;5.10;;;1.85;;
23068;SDS011;11702;50.856;4.348;2022-09-12T14:28:40;2.25;;;1.60;;
23068;SDS011;11702;50.856;4.348;2022-09-12T14:38:44;2.80;;;1.35;;
23068;SDS011;11702;50.856;4.348;2022-09-12T14:41:13;3.15;;;1.48;;
23068;SDS011;11702;50.856;4.348;2022-09-12T14:43:52;3.60;;;1.42;;
23068;SDS011;11702;50.856;4.348;2022-09-12T14:46:41;2.22;;;1.67;;
23068;SDS011;11702;50.856;4.348;2022-09-12T14:49:09;5.15;;;1.95;;
23068;SDS011;11702;50.856;4.348;2022-09-12T14:51:58;2.83;;;1.35;;
23068;SDS011;11702;50.856;4.348;2022-09-12T14:57:00;7.30;;;1.48;;
23068;SDS011;11702;50.856;4.348;2022-09-12T14:59:28;5.35;;;1.65;;
23068;SDS011;11702;50.856;4.348;2022-09-12T15:04:42;8.10;;;2.15;;
23068;SDS011;11702;50.856;4.348;2022-09-12T15:10:43;5.15;;;2.30;;
23068;SDS011;11702;50.856;4.348;2022-09-12T15:15:28;4.72;;;1.92;;
23068;SDS011;11702;50.856;4.348;2022-09-12T15:17:54;3.08;;;1.50;;
23068;SDS011;11702;50.856;4.348;2022-09-12T15:20:19;4.20;;;1.60;;
23068;SDS011;11702;50.856;4.348;2022-09-12T15:22:45;2.58;;;1.80;;
23068;SDS011;11702;50.856;4.348;2022-09-12T15:25:11;2.65;;;1.88;;
23068;SDS011;11702;50.856;4.348;2022-09-12T15:27:37;3.25;;;1.80;;
23068;SDS011;11702;50.856;4.348;2022-09-12T15:30:05;4.20;;;1.98;;
23068;SDS011;11702;50.856;4.348;2022-09-12T15:32:31;5.70;;;1.65;;
23068;SDS011;11702;50.856;4.348;2022-09-12T15:34:58;8.65;;;1.70;;
23068;SDS011;11702;50.856;4.348;2022-09-12T15:37:24;4.10;;;1.80;;
23068;SDS011;11702;50.856;4.348;2022-09-12T15:39:50;6.00;;;1.85;;
23068;SDS011;11702;50.856;4.348;2022-09-12T15:42:17;4.22;;;1.67;;
23068;SDS011;11702;50.856;4.348;2022-09-12T15:44:48;3.53;;;1.58;;
23068;SDS011;11702;50.856;4.348;2022-09-12T15:47:14;3.40;;;1.52;;
23068;SDS011;11702;50.856;4.348;2022-09-12T15:49:40;1.73;;;1.50;;
23068;SDS011;11702;50.856;4.348;2022-09-12T15:52:06;6.47;;;2.05;;
23068;SDS011;11702;50.856;4.348;2022-09-12T15:54:35;4.73;;;1.53;;
23068;SDS011;11702;50.856;4.348;2022-09-12T15:57:01;3.97;;;1.55;;
23068;SDS011;11702;50.856;4.348;2022-09-12T15:59:26;1.83;;;1.50;;
23068;SDS011;11702;50.856;4.348;2022-09-12T16:01:52;5.55;;;1.50;;
23068;SDS011;11702;50.856;4.348;2022-09-12T16:04:25;6.03;;;1.77;;
23068;SDS011;11702;50.856;4.348;2022-09-12T16:06:52;3.65;;;1.75;;
23068;SDS011;11702;50.856;4.348;2022-09-12T16:09:18;5.03;;;1.70;;
23068;SDS011;11702;50.856;4.348;2022-09-12T16:11:45;4.20;;;1.70;;
23068;SDS011;11702;50.856;4.348;2022-09-12T16:14:14;5.93;;;2.00;;
23068;SDS011;11702;50.856;4.348;2022-09-12T16:19:07;3.08;;;1.45;;
23068;SDS011;11702;50.856;4.348;2022-09-12T16:21:34;3.60;;;1.42;;
23068;SDS011;11702;50.856;4.348;2022-09-12T16:24:00;4.30;;;1.58;;
23068;SDS011;11702;50.856;4.348;2022-09-12T16:26:26;3.35;;;1.92;;
23068;SDS011;11702;50.856;4.348;2022-09-12T16:28:55;2.95;;;1.58;;
23068;SDS011;11702;50.856;4.348;2022-09-12T16:31:21;3.47;;;1.73;;
23068;SDS011;11702;50.856;4.348;2022-09-12T16:33:48;5.63;;;1.70;;
23068;SDS011;11702;50.856;4.348;2022-09-12T16:36:14;6.95;;;1.90;;
23068;SDS011;11702;50.856;4.348;2022-09-12T16:38:42;4.13;;;1.90;;
23068;SDS011;11702;50.856;4.348;2022-09-12T16:41:12;3.55;;;2.20;;
23068;SDS011;11702;50.856;4.348;2022-09-12T16:43:38;4.38;;;2.05;;
23068;SDS011;11702;50.856;4.348;2022-09-12T16:48:44;5.20;;;1.90;;
23068;SDS011;11702;50.856;4.348;2022-09-12T16:51:13;3.60;;;1.85;;
23068;SDS011;11702;50.856;4.348;2022-09-12T16:53:40;2.67;;;1.60;;
23068;SDS011;11702;50.856;4.348;2022-09-12T16:56:06;2.70;;;1.77;;
23068;SDS011;11702;50.856;4.348;2022-09-12T16:58:36;2.50;;;1.80;;
23068;SDS011;11702;50.856;4.348;2022-09-12T17:01:11;2.92;;;1.90;;
23068;SDS011;11702;50.856;4.348;2022-09-12T17:03:39;8.23;;;3.85;;
23068;SDS011;11702;50.856;4.348;2022-09-12T17:06:06;2.35;;;1.80;;
23068;SDS011;11702;50.856;4.348;2022-09-12T17:08:35;3.47;;;2.20;;
23068;SDS011;11702;50.856;4.348;2022-09-12T17:11:03;3.63;;;2.40;;
23068;SDS011;11702;50.856;4.348;2022-09-12T17:13:31;4.97;;;2.20;;
23068;SDS011;11702;50.856;4.348;2022-09-12T17:15:57;5.00;;;2.85;;
23068;SDS011;11702;50.856;4.348;2022-09-12T17:18:22;5.93;;;3.70;;
23068;SDS011;11702;50.856;4.348;2022-09-12T17:20:49;7.50;;;3.30;;
23068;SDS011;11702;50.856;4.348;2022-09-12T17:23:14;4.15;;;2.50;;
23068;SDS011;11702;50.856;4.348;2022-09-12T17:25:45;4.07;;;2.28;;
23068;SDS011;11702;50.856;4.348;2022-09-12T17:28:11;5.38;;;2.40;;
23068;SDS011;11702;50.856;4.348;2022-09-12T17:30:37;8.88;;;2.95;;
23068;SDS011;11702;50.856;4.348;2022-09-12T17:33:03;4.28;;;2.85;;
23068;SDS011;11702;50.856;4.348;2022-09-12T17:35:32;5.60;;;3.20;;
23068;SDS011;11702;50.856;4.348;2022-09-12T17:37:58;5.80;;;2.43;;
23068;SDS011;11702;50.856;4.348;2022-09-12T17:40:25;12.00;;;3.20;;
23068;SDS011;11702;50.856;4.348;2022-09-12T17:42:51;5.85;;;2.60;;
23068;SDS011;11702;50.856;4.348;2022-09-12T17:45:16;4.28;;;2.35;;
23068;SDS011;11702;50.856;4.348;2022-09-12T17:47:42;8.00;;;2.97;;
23068;SDS011;11702;50.856;4.348;2022-09-12T17:50:08;7.10;;;2.60;;
23068;SDS011;11702;50.856;4.348;2022-09-12T17:52:34;4.43;;;2.60;;
23068;SDS011;11702;50.856;4.348;2022-09-12T17:55:00;7.13;;;2.88;;